Stratton Mountain, Vermont
Current Conditions -  °F | °C
As of 2:54 PM on Sunday 23 Nov 2014 (Local Time) from KDDH Reporting Station
Overcast Overcast  
Wind Chill: 53°   Ceiling: 10000
Heat Index: 53°   Visibility: 10mi
Dew Point: 40°   Wind: 0mph
Humidity: 61%   Direction: NA
Pressure: 30.07"   Gusts: NA
Location:  43.11°N, 72.91°W
Report Text: KDDH 231954Z AUTO 00000KT 10SM FEW055 OVC100 12/04 A3007 RMK AO2 SLP187 T01170044
Loading
Personal Weather Stations






























Interactive Weather Map New forecast layout! Learn more

10-Day Weather Forecast

Advertisements
Track Severe Weather on mobile